KLRD/LRD METAR and TAF weather

Enter ICAO airport designator
Station Type Date Time Source
KLRD METAR 2019/02/21 15:56 UTC NOAA

KLRD 211556Z 10005KT 10SM CLR 18/07 A2990 RMK AO2 SLP139 T01780067


Station Type Date Time Source
KLRD Decoded METAR 2019/02/21 15:56 UTC NOAA

Laredo, Laredo International Airport, TX, United States (KLRD) 27-32-37N 099-27-41W
Feb 21, 2019 - 10:56 AM EST / 2019.02.21 1556 UTC
Wind: from the E (100 degrees) at 6 MPH (5 KT):0
Visibility: 10 mile(s):0
Sky conditions: clear
Temperature: 64.0 F (17.8 C)
Dew Point: 44.1 F (6.7 C)
Relative Humidity: 48%
Pressure (altimeter): 29.9 in. Hg (1012 hPa)
ob: KLRD 211556Z 10005KT 10SM CLR 18/07 A2990 RMK AO2 SLP139 T01780067
cycle: 16

Station Type Date Time Source
KLRD TAF 2019/02/21 12:33 UTC NOAA

TAF KLRD 211131Z 2112/2212 07006KT P6SM SCT025 OVC060
TEMPO 2113/2116 BKN025 OVC060
FM211800 09006KT P6SM FEW060 BKN250
FM220200 11009KT P6SM BKN150
FM220800 13008KT P6SM BKN015 OVC150


Example: see airport list